createdAt,value
2023-05-09T00:00:38.820Z,37.14
2023-05-09T00:01:38.965Z,37.12
2023-05-09T00:02:38.907Z,37.12
2023-05-09T00:03:38.846Z,37.12
2023-05-09T00:04:38.858Z,37.12
2023-05-09T00:05:38.806Z,37.10
2023-05-09T00:06:38.809Z,37.09
2023-05-09T00:07:38.822Z,37.13
2023-05-09T00:08:38.817Z,37.10
2023-05-09T00:09:38.773Z,37.11
2023-05-09T00:10:38.750Z,37.12
2023-05-09T00:11:38.765Z,37.12
2023-05-09T00:12:38.813Z,37.13
2023-05-09T00:13:38.756Z,37.12
2023-05-09T00:14:38.771Z,37.08
2023-05-09T00:15:38.709Z,37.10
2023-05-09T00:16:38.793Z,37.11
2023-05-09T00:17:38.881Z,37.09
2023-05-09T00:18:38.737Z,37.09
2023-05-09T00:19:38.709Z,37.10
2023-05-09T00:20:38.670Z,37.08
2023-05-09T00:21:38.643Z,37.10
2023-05-09T00:22:38.654Z,37.09
2023-05-09T00:23:38.742Z,37.09
2023-05-09T00:24:38.642Z,37.07
2023-05-09T00:25:38.708Z,37.10
2023-05-09T00:26:38.646Z,37.06
2023-05-09T00:27:38.625Z,37.06
2023-05-09T00:28:38.655Z,37.07
2023-05-09T00:29:38.615Z,37.05
2023-05-09T00:30:38.623Z,37.05
2023-05-09T00:31:38.633Z,37.08
2023-05-09T00:32:38.650Z,37.04
2023-05-09T00:33:38.724Z,37.05
2023-05-09T00:34:38.597Z,37.05
2023-05-09T00:35:38.603Z,37.03
2023-05-09T00:36:38.616Z,37.05
2023-05-09T00:37:38.574Z,37.05
2023-05-09T00:38:38.572Z,37.04
2023-05-09T00:39:38.584Z,37.07
2023-05-09T00:40:38.574Z,37.05
2023-05-09T00:41:38.566Z,37.04
2023-05-09T00:42:38.570Z,37.05
2023-05-09T00:43:38.555Z,37.04
2023-05-09T00:44:38.973Z,37.05
2023-05-09T00:45:38.553Z,37.02
2023-05-09T00:46:38.558Z,37.03
2023-05-09T00:47:38.568Z,37.03
2023-05-09T00:48:38.507Z,37.04
2023-05-09T00:49:38.581Z,37.03
2023-05-09T00:50:38.498Z,37.04
2023-05-09T00:51:38.515Z,37.04
2023-05-09T00:52:38.478Z,37.04
2023-05-09T00:53:38.466Z,37.04
2023-05-09T00:54:38.478Z,37.03
2023-05-09T00:55:38.448Z,37.02
2023-05-09T00:56:38.477Z,37.02
2023-05-09T00:57:38.455Z,37.02
2023-05-09T00:58:38.412Z,37.01
2023-05-09T00:59:38.427Z,37.01
2023-05-09T01:00:38.409Z,37.03
2023-05-09T01:01:38.464Z,37.00
2023-05-09T01:02:38.506Z,36.99
2023-05-09T01:03:38.584Z,37.00
2023-05-09T01:04:38.395Z,36.98
2023-05-09T01:05:38.451Z,37.01
2023-05-09T01:06:38.419Z,37.00
2023-05-09T01:07:38.381Z,36.98
2023-05-09T01:08:38.373Z,36.98
2023-05-09T01:09:38.338Z,36.98
2023-05-09T01:10:38.334Z,37.01
2023-05-09T01:11:38.345Z,36.99
2023-05-09T01:12:38.456Z,36.98
2023-05-09T01:13:38.470Z,36.99
2023-05-09T01:14:38.471Z,36.95
2023-05-09T01:15:38.511Z,37.00
2023-05-09T01:16:38.480Z,36.97
2023-05-09T01:17:38.640Z,37.00
2023-05-09T01:18:38.534Z,36.97
2023-05-09T01:19:38.496Z,36.96
2023-05-09T01:20:38.563Z,36.97
2023-05-09T01:21:38.643Z,36.97
2023-05-09T01:22:38.626Z,36.95
2023-05-09T01:23:38.594Z,36.98
2023-05-09T01:24:38.587Z,36.95
2023-05-09T01:25:38.607Z,36.96
2023-05-09T01:26:38.595Z,36.96
2023-05-09T01:27:38.599Z,36.97
2023-05-09T01:28:38.613Z,36.96
2023-05-09T01:29:38.637Z,36.95
2023-05-09T01:30:38.685Z,36.95
2023-05-09T01:31:38.736Z,36.96
2023-05-09T01:32:38.697Z,36.92
2023-05-09T01:33:38.671Z,36.94
2023-05-09T01:34:38.667Z,36.93
2023-05-09T01:35:38.711Z,36.95
2023-05-09T01:36:38.726Z,36.94
2023-05-09T01:37:38.826Z,36.92
2023-05-09T01:38:38.727Z,36.93
2023-05-09T01:39:38.750Z,36.95
2023-05-09T01:40:38.745Z,36.94
2023-05-09T01:41:38.766Z,36.94
2023-05-09T01:42:38.754Z,36.93
2023-05-09T01:43:38.842Z,36.92
2023-05-09T01:44:38.801Z,36.91
2023-05-09T01:45:38.891Z,36.92
2023-05-09T01:46:38.810Z,36.92
2023-05-09T01:47:38.826Z,36.92
2023-05-09T01:48:38.841Z,36.91
2023-05-09T01:49:38.871Z,36.90
2023-05-09T01:50:38.913Z,36.91
2023-05-09T01:51:38.961Z,36.89
2023-05-09T01:52:38.880Z,36.93
2023-05-09T01:53:38.962Z,36.92
2023-05-09T01:54:38.898Z,36.93
2023-05-09T01:55:38.913Z,36.93
2023-05-09T01:56:38.955Z,36.93
2023-05-09T01:57:38.919Z,36.93
2023-05-09T01:58:38.919Z,36.91
2023-05-09T01:59:38.982Z,36.92
2023-05-09T02:00:39.005Z,36.94
2023-05-09T02:01:38.993Z,36.89
2023-05-09T02:02:39.171Z,36.92
2023-05-09T02:03:38.978Z,36.89
2023-05-09T02:04:39.025Z,36.89
2023-05-09T02:05:39.018Z,36.88
2023-05-09T02:06:38.999Z,36.89
2023-05-09T02:07:39.043Z,36.90
2023-05-09T02:08:39.013Z,36.89
2023-05-09T02:09:39.098Z,36.89
2023-05-09T02:10:39.059Z,36.88
2023-05-09T02:11:39.029Z,36.88
2023-05-09T02:12:39.076Z,36.88
2023-05-09T02:13:39.071Z,36.87
2023-05-09T02:14:39.076Z,36.90
2023-05-09T02:15:39.137Z,36.89
2023-05-09T02:16:39.160Z,36.89
2023-05-09T02:17:39.103Z,36.88
2023-05-09T02:18:39.098Z,36.87
2023-05-09T02:19:39.112Z,36.89
2023-05-09T02:20:39.141Z,36.86
2023-05-09T02:21:39.170Z,36.86
2023-05-09T02:22:39.157Z,36.89
2023-05-09T02:23:39.187Z,36.88
2023-05-09T02:24:39.162Z,36.87
2023-05-09T02:25:39.277Z,36.87
2023-05-09T02:26:39.166Z,36.88
2023-05-09T02:27:39.173Z,36.88
2023-05-09T02:28:39.184Z,36.89
2023-05-09T02:29:39.201Z,36.87
2023-05-09T02:30:39.184Z,36.89
2023-05-09T02:31:39.226Z,36.88
2023-05-09T02:32:39.248Z,36.84
2023-05-09T02:33:39.250Z,36.85
2023-05-09T02:34:39.267Z,36.86
2023-05-09T02:35:39.327Z,36.85
2023-05-09T02:36:39.254Z,36.87
2023-05-09T02:37:39.271Z,36.87
2023-05-09T02:38:39.246Z,36.88
2023-05-09T02:39:39.288Z,36.87
2023-05-09T02:40:39.288Z,36.87
2023-05-09T02:41:39.358Z,36.86
2023-05-09T02:42:39.281Z,36.86
2023-05-09T02:43:39.292Z,36.86
2023-05-09T02:44:39.286Z,36.89
2023-05-09T02:45:39.350Z,36.86
2023-05-09T02:46:39.336Z,36.87
2023-05-09T02:47:39.390Z,36.84
2023-05-09T02:48:39.279Z,36.86
2023-05-09T02:49:39.322Z,36.85
2023-05-09T02:50:39.323Z,36.84
2023-05-09T02:51:39.364Z,36.86
2023-05-09T02:52:39.380Z,36.83
2023-05-09T02:53:39.384Z,36.83
2023-05-09T02:54:39.352Z,36.83
2023-05-09T02:55:39.363Z,36.84
2023-05-09T02:56:39.377Z,36.85
2023-05-09T02:57:39.492Z,36.83
2023-05-09T02:58:39.383Z,36.82
2023-05-09T02:59:39.387Z,36.84
2023-05-09T03:00:39.424Z,36.84
2023-05-09T03:01:39.452Z,36.85
2023-05-09T03:02:39.571Z,36.83
2023-05-09T03:03:39.488Z,36.83
2023-05-09T03:04:39.446Z,36.84
2023-05-09T03:05:39.490Z,36.84
2023-05-09T03:06:39.474Z,36.84
2023-05-09T03:07:39.438Z,36.82
2023-05-09T03:08:39.535Z,36.82
2023-05-09T03:09:41.105Z,36.82
2023-05-09T03:10:39.490Z,36.81
2023-05-09T03:11:39.510Z,36.81
2023-05-09T03:12:39.536Z,36.83
2023-05-09T03:13:39.742Z,36.82
2023-05-09T03:14:39.551Z,36.82
2023-05-09T03:15:39.534Z,36.80
2023-05-09T03:16:39.573Z,36.81
2023-05-09T03:17:39.540Z,36.83
2023-05-09T03:18:39.567Z,36.82
2023-05-09T03:19:39.569Z,36.82
2023-05-09T03:20:39.564Z,36.82
2023-05-09T03:21:39.615Z,36.81
2023-05-09T03:22:39.588Z,36.81
2023-05-09T03:23:39.621Z,36.82
2023-05-09T03:24:39.638Z,36.80
2023-05-09T03:25:39.644Z,36.82
2023-05-09T03:26:39.636Z,36.83
2023-05-09T03:27:39.666Z,36.79
2023-05-09T03:28:39.691Z,36.82
2023-05-09T03:29:39.753Z,36.83
2023-05-09T03:30:39.661Z,36.82
2023-05-09T03:31:39.728Z,36.83
2023-05-09T03:32:39.705Z,36.83
2023-05-09T03:33:39.689Z,36.82
2023-05-09T03:34:39.668Z,36.83
2023-05-09T03:35:39.698Z,36.82
2023-05-09T03:36:39.724Z,36.81
2023-05-09T03:37:39.717Z,36.82
2023-05-09T03:38:39.769Z,36.82
2023-05-09T03:39:39.731Z,36.82
2023-05-09T03:40:39.779Z,36.81
2023-05-09T03:41:39.773Z,36.81
2023-05-09T03:42:39.790Z,36.81
2023-05-09T03:43:39.774Z,36.82
2023-05-09T03:44:39.770Z,36.81
2023-05-09T03:45:39.865Z,36.79
2023-05-09T03:46:39.798Z,36.79
2023-05-09T03:47:39.790Z,36.80
2023-05-09T03:48:39.797Z,36.81
2023-05-09T03:49:39.835Z,36.80
2023-05-09T03:50:39.836Z,36.80
2023-05-09T03:51:41.976Z,36.78
2023-05-09T03:52:39.873Z,36.80
2023-05-09T03:53:39.868Z,36.78
2023-05-09T03:54:39.905Z,36.78
2023-05-09T03:55:39.914Z,36.79
2023-05-09T03:56:39.894Z,36.77
2023-05-09T03:57:39.926Z,36.79
2023-05-09T03:58:39.957Z,36.77
2023-05-09T03:59:39.931Z,36.77
2023-05-09T04:00:39.955Z,36.76
2023-05-09T04:01:40.313Z,36.77
2023-05-09T04:02:40.010Z,36.78
2023-05-09T04:03:40.087Z,36.84
2023-05-09T04:04:39.971Z,36.89
2023-05-09T04:05:39.984Z,36.92
2023-05-09T04:06:39.980Z,36.95
2023-05-09T04:07:39.976Z,36.98
2023-05-09T04:08:39.998Z,37.06
2023-05-09T04:09:39.992Z,37.10
2023-05-09T04:10:40.016Z,37.11
2023-05-09T04:11:40.034Z,37.16
2023-05-09T04:12:40.063Z,37.20
2023-05-09T04:13:40.040Z,37.20
2023-05-09T04:14:40.033Z,37.19
2023-05-09T04:15:40.054Z,37.22
2023-05-09T04:16:40.139Z,37.26
2023-05-09T04:17:41.164Z,37.26
2023-05-09T04:18:40.140Z,37.28
2023-05-09T04:19:40.110Z,37.33
2023-05-09T04:20:40.165Z,37.30
2023-05-09T04:21:40.131Z,37.34
2023-05-09T04:22:40.139Z,37.34
2023-05-09T04:23:40.139Z,37.38
2023-05-09T04:24:40.260Z,37.37
2023-05-09T04:25:40.157Z,37.37
2023-05-09T04:26:40.165Z,37.41
2023-05-09T04:27:40.236Z,37.42
2023-05-09T04:28:40.231Z,37.44
2023-05-09T04:29:40.244Z,37.47
2023-05-09T04:30:40.353Z,37.48
2023-05-09T04:31:40.351Z,37.45
2023-05-09T04:32:40.318Z,37.47
2023-05-09T04:33:40.387Z,37.45
2023-05-09T04:34:40.380Z,37.46
2023-05-09T04:35:40.377Z,37.46
2023-05-09T04:36:40.399Z,37.41
2023-05-09T04:37:40.399Z,37.42
2023-05-09T04:38:40.408Z,37.41
2023-05-09T04:39:40.418Z,37.38
2023-05-09T04:40:40.525Z,37.34
2023-05-09T04:41:40.467Z,37.34
2023-05-09T04:42:40.514Z,37.31
2023-05-09T04:43:40.548Z,37.28
2023-05-09T04:44:40.570Z,37.28
2023-05-09T04:45:40.602Z,37.25
2023-05-09T04:46:40.667Z,37.25
2023-05-09T04:47:40.673Z,37.25
2023-05-09T04:48:40.685Z,37.23
2023-05-09T04:49:40.758Z,37.26
2023-05-09T04:50:40.700Z,37.19
2023-05-09T04:51:40.739Z,37.21
2023-05-09T04:52:40.756Z,37.22
2023-05-09T04:53:40.764Z,37.18
2023-05-09T04:54:40.771Z,37.18
2023-05-09T04:55:40.841Z,37.17
2023-05-09T04:56:40.926Z,37.15
2023-05-09T04:57:40.820Z,37.15
2023-05-09T04:58:40.895Z,37.14
2023-05-09T04:59:40.903Z,37.15
2023-05-09T05:00:40.912Z,37.15
2023-05-09T05:01:40.935Z,37.12
2023-05-09T05:02:40.968Z,37.15
2023-05-09T05:03:41.008Z,37.13
2023-05-09T05:04:41.008Z,37.15
2023-05-09T05:05:41.144Z,37.13
2023-05-09T05:06:41.011Z,37.13
2023-05-09T05:07:41.615Z,37.12
2023-05-09T05:08:41.057Z,37.13
2023-05-09T05:09:41.088Z,37.12
2023-05-09T05:10:41.136Z,37.12
2023-05-09T05:11:47.371Z,37.09
2023-05-09T05:12:42.147Z,37.13
2023-05-09T05:13:41.120Z,37.14
2023-05-09T05:14:41.105Z,37.17
2023-05-09T05:15:41.112Z,37.11
2023-05-09T05:16:41.265Z,37.13
2023-05-09T05:17:41.121Z,37.15
2023-05-09T05:18:41.133Z,37.16
2023-05-09T05:19:41.061Z,37.15
2023-05-09T05:20:41.039Z,37.15
2023-05-09T05:21:41.133Z,37.13
2023-05-09T05:22:41.071Z,37.18
2023-05-09T05:23:41.060Z,37.18
2023-05-09T05:24:41.080Z,37.15
2023-05-09T05:25:41.029Z,37.15
2023-05-09T05:26:41.026Z,37.17
2023-05-09T05:27:41.061Z,37.16
2023-05-09T05:28:41.006Z,37.16
2023-05-09T05:29:40.994Z,37.15
2023-05-09T05:30:41.066Z,37.14
2023-05-09T05:31:41.160Z,37.13
2023-05-09T05:32:41.120Z,37.27
2023-05-09T05:33:41.152Z,38.22
2023-05-09T05:34:41.148Z,37.93
2023-05-09T05:35:41.151Z,38.39
2023-05-09T05:36:42.182Z,38.96
2023-05-09T05:37:41.397Z,39.16
2023-05-09T05:38:41.354Z,39.34
2023-05-09T05:39:41.246Z,39.95
2023-05-09T05:40:41.250Z,40.02
2023-05-09T05:41:41.210Z,41.30
2023-05-09T05:42:41.294Z,40.72
2023-05-09T05:43:41.261Z,40.94
2023-05-09T05:44:41.362Z,42.06
2023-05-09T05:45:41.336Z,41.31
2023-05-09T05:46:41.352Z,41.08
2023-05-09T05:47:41.383Z,41.08
2023-05-09T05:48:41.344Z,41.11
2023-05-09T05:49:41.413Z,41.32
2023-05-09T05:50:41.396Z,41.42
2023-05-09T05:51:41.472Z,41.29
2023-05-09T05:52:41.427Z,41.14
2023-05-09T05:53:41.492Z,41.15
2023-05-09T05:54:41.428Z,41.17
2023-05-09T05:55:41.455Z,41.12
2023-05-09T05:56:41.440Z,41.26
2023-05-09T05:57:41.573Z,41.24
2023-05-09T05:58:41.448Z,41.21
2023-05-09T05:59:41.458Z,41.15
2023-05-09T06:00:41.465Z,41.29
2023-05-09T06:01:42.132Z,41.25
2023-05-09T06:02:41.593Z,41.18
2023-05-09T06:03:41.700Z,41.08
2023-05-09T06:04:41.709Z,41.29
2023-05-09T06:05:41.698Z,41.04
2023-05-09T06:06:41.764Z,41.04
2023-05-09T06:07:41.820Z,41.01
2023-05-09T06:08:41.892Z,41.19
2023-05-09T06:09:41.989Z,41.47
2023-05-09T06:10:41.957Z,41.77
2023-05-09T06:11:42.046Z,41.38
2023-05-09T06:12:42.079Z,41.25
2023-05-09T06:13:42.146Z,41.37
2023-05-09T06:14:42.125Z,41.32
2023-05-09T06:15:42.184Z,41.36
2023-05-09T06:16:42.237Z,41.24
2023-05-09T06:17:42.302Z,41.22
2023-05-09T06:18:42.311Z,41.23
2023-05-09T06:19:42.314Z,41.12
2023-05-09T06:20:42.445Z,41.02
2023-05-09T06:21:42.497Z,40.98
2023-05-09T06:22:42.511Z,41.11
2023-05-09T06:23:57.000Z,41.02
2023-05-09T06:24:43.525Z,40.95
2023-05-09T06:25:42.513Z,40.93
2023-05-09T06:26:42.657Z,40.85
2023-05-09T06:27:42.492Z,41.04
2023-05-09T06:28:42.581Z,40.99
2023-05-09T06:29:42.490Z,40.89
2023-05-09T06:30:42.494Z,41.02
2023-05-09T06:31:42.483Z,40.86
2023-05-09T06:32:42.491Z,40.92
2023-05-09T06:33:42.468Z,40.83
2023-05-09T06:34:42.526Z,40.78
2023-05-09T06:35:42.623Z,40.86
2023-05-09T06:36:42.598Z,41.04
2023-05-09T06:37:42.598Z,40.90
2023-05-09T06:38:43.627Z,40.96
2023-05-09T06:39:42.711Z,40.55
2023-05-09T06:40:42.815Z,40.26
2023-05-09T06:41:42.823Z,40.18
2023-05-09T06:42:42.855Z,40.10
2023-05-09T06:43:42.831Z,40.18
2023-05-09T06:44:42.871Z,40.22
2023-05-09T06:45:42.904Z,40.20
2023-05-09T06:46:43.219Z,40.13
2023-05-09T06:47:43.066Z,40.12
2023-05-09T06:48:43.033Z,40.32
2023-05-09T06:49:43.034Z,40.55
2023-05-09T06:50:43.043Z,40.67
2023-05-09T06:51:43.152Z,40.65
2023-05-09T06:52:43.155Z,40.77
2023-05-09T06:53:43.203Z,40.87
2023-05-09T06:54:43.131Z,40.91
2023-05-09T06:55:43.175Z,40.98
2023-05-09T06:56:43.273Z,41.15
2023-05-09T06:57:43.217Z,41.10
2023-05-09T06:58:43.680Z,41.19
2023-05-09T06:59:43.742Z,41.05
2023-05-09T07:00:43.610Z,41.09
2023-05-09T07:01:43.486Z,41.06
2023-05-09T07:02:43.646Z,41.10
2023-05-09T07:03:43.650Z,41.09
2023-05-09T07:04:43.751Z,41.06
2023-05-09T07:05:43.649Z,41.07
2023-05-09T07:06:43.724Z,41.13
2023-05-09T07:07:43.719Z,41.25
2023-05-09T07:08:43.740Z,41.15
2023-05-09T07:09:43.786Z,41.13
2023-05-09T07:10:43.816Z,41.09
2023-05-09T07:11:43.798Z,41.09
2023-05-09T07:12:43.953Z,41.00
2023-05-09T07:13:43.862Z,41.05
2023-05-09T07:14:43.985Z,41.10
2023-05-09T07:15:44.034Z,41.15
2023-05-09T07:16:43.980Z,41.02
2023-05-09T07:17:43.966Z,41.08
2023-05-09T07:18:44.164Z,41.10
2023-05-09T07:19:44.161Z,41.02
2023-05-09T07:20:44.148Z,41.12
2023-05-09T07:21:44.073Z,41.18
2023-05-09T07:22:44.046Z,41.08
2023-05-09T07:23:44.032Z,41.15
2023-05-09T07:24:44.052Z,41.21
2023-05-09T07:25:44.072Z,41.16
2023-05-09T07:26:44.041Z,41.24
2023-05-09T07:27:44.196Z,41.25
2023-05-09T07:28:44.155Z,41.10
2023-05-09T07:29:44.074Z,41.13
2023-05-09T07:30:44.237Z,41.33
2023-05-09T07:31:44.129Z,41.30
2023-05-09T07:32:44.168Z,41.43
2023-05-09T07:33:44.643Z,41.24
2023-05-09T07:34:44.163Z,41.08
2023-05-09T07:35:44.235Z,41.02
2023-05-09T07:36:45.671Z,40.94
2023-05-09T07:37:44.081Z,40.92
2023-05-09T07:38:44.081Z,40.85
2023-05-09T07:39:44.054Z,40.84
2023-05-09T07:40:44.714Z,40.93
2023-05-09T07:41:44.279Z,40.96
2023-05-09T07:42:44.189Z,41.11
2023-05-09T07:43:44.097Z,40.95
2023-05-09T07:44:44.154Z,41.00
2023-05-09T07:45:44.141Z,41.07
2023-05-09T07:46:44.159Z,41.14
2023-05-09T07:47:44.153Z,41.23
2023-05-09T07:48:44.179Z,41.23
2023-05-09T07:49:44.192Z,41.26
2023-05-09T07:50:44.272Z,41.24
2023-05-09T07:51:44.673Z,40.95
2023-05-09T07:52:44.458Z,41.11
2023-05-09T07:53:44.396Z,41.09
2023-05-09T07:54:44.664Z,40.90
2023-05-09T07:55:44.506Z,40.93
2023-05-09T07:56:48.931Z,40.88
2023-05-09T07:57:44.520Z,40.83
2023-05-09T07:58:44.577Z,40.92
2023-05-09T07:59:44.546Z,40.85
2023-05-09T08:00:44.771Z,40.68
2023-05-09T08:01:44.756Z,40.58
2023-05-09T08:02:44.508Z,40.67
2023-05-09T08:03:44.689Z,40.77
2023-05-09T08:04:44.486Z,40.74
2023-05-09T08:05:44.435Z,40.62
2023-05-09T08:06:44.483Z,40.71
2023-05-09T08:07:44.476Z,40.75
2023-05-09T08:08:44.461Z,40.77
2023-05-09T08:09:44.400Z,40.66
2023-05-09T08:10:44.458Z,40.51
2023-05-09T08:11:44.388Z,40.37
2023-05-09T08:12:44.696Z,40.28
2023-05-09T08:13:44.650Z,40.34
2023-05-09T08:14:44.332Z,40.28
2023-05-09T08:15:44.446Z,40.23
2023-05-09T08:16:45.985Z,40.19
2023-05-09T08:17:44.416Z,40.12
2023-05-09T08:18:44.460Z,40.12
2023-05-09T08:19:44.565Z,40.13
2023-05-09T08:20:44.680Z,40.10
2023-05-09T08:21:44.614Z,39.99
2023-05-09T08:22:44.899Z,39.87
2023-05-09T08:23:44.721Z,39.69
2023-05-09T08:24:44.798Z,39.55
2023-05-09T08:25:44.851Z,39.48
2023-05-09T08:26:45.860Z,39.58
2023-05-09T08:27:44.878Z,39.50
2023-05-09T08:28:44.942Z,38.90
2023-05-09T08:29:45.051Z,37.95
2023-05-09T08:30:44.961Z,37.57
2023-05-09T08:31:45.127Z,37.56
2023-05-09T08:32:45.166Z,37.24
2023-05-09T08:33:45.489Z,36.88
2023-05-09T08:34:45.185Z,36.81
2023-05-09T08:35:45.221Z,36.76
2023-05-09T08:36:45.320Z,36.76
2023-05-09T08:37:45.301Z,36.79
2023-05-09T08:38:45.216Z,36.73
2023-05-09T08:39:45.235Z,36.73
2023-05-09T08:40:45.349Z,36.60
2023-05-09T08:41:45.264Z,36.56
2023-05-09T08:42:45.261Z,37.33
2023-05-09T08:43:45.700Z,37.73
2023-05-09T08:44:45.273Z,37.64
2023-05-09T08:45:45.254Z,37.77
2023-05-09T08:46:45.397Z,37.94
2023-05-09T08:47:45.384Z,38.14
2023-05-09T08:48:45.338Z,38.55
2023-05-09T08:49:45.286Z,38.27
2023-05-09T08:50:45.317Z,38.43
2023-05-09T08:51:45.298Z,38.42
2023-05-09T08:52:45.296Z,38.53
2023-05-09T08:53:45.242Z,38.46
2023-05-09T08:54:45.696Z,38.53
2023-05-09T08:55:45.294Z,38.30
2023-05-09T08:56:45.263Z,38.48
2023-05-09T08:57:45.726Z,38.62
2023-05-09T08:58:45.663Z,38.64
2023-05-09T08:59:45.682Z,38.63
2023-05-09T09:00:45.324Z,38.53
2023-05-09T09:01:45.308Z,38.80
2023-05-09T09:02:45.327Z,38.70
2023-05-09T09:03:45.341Z,38.76
2023-05-09T09:04:45.419Z,38.62
2023-05-09T09:05:45.385Z,38.79
2023-05-09T09:06:45.329Z,38.82
2023-05-09T09:07:48.683Z,38.57
2023-05-09T09:08:45.416Z,38.88
2023-05-09T09:09:45.262Z,38.68
2023-05-09T09:10:45.740Z,38.97
2023-05-09T09:11:45.253Z,38.91
2023-05-09T09:12:45.313Z,38.85
2023-05-09T09:13:45.344Z,38.94
2023-05-09T09:14:46.112Z,38.64
2023-05-09T09:15:45.785Z,38.92
2023-05-09T09:16:45.310Z,38.52
2023-05-09T09:17:45.257Z,38.09
2023-05-09T09:18:45.292Z,38.13
2023-05-09T09:19:45.318Z,38.59
2023-05-09T09:20:45.938Z,38.05
2023-05-09T09:21:45.205Z,38.75
2023-05-09T09:22:45.197Z,38.80
2023-05-09T09:23:46.023Z,38.38
2023-05-09T09:24:45.220Z,38.48
2023-05-09T09:25:45.261Z,38.49
2023-05-09T09:26:45.259Z,38.04
2023-05-09T09:27:45.177Z,38.41
2023-05-09T09:28:45.759Z,38.40
2023-05-09T09:29:45.261Z,38.14
2023-05-09T09:30:45.289Z,38.52
2023-05-09T09:31:45.212Z,38.11
2023-05-09T09:32:45.259Z,38.08
2023-05-09T09:33:45.139Z,37.99
2023-05-09T09:34:45.112Z,37.96
2023-05-09T09:35:45.223Z,37.92
2023-05-09T09:36:45.156Z,37.89
2023-05-09T09:37:45.120Z,37.89
2023-05-09T09:38:45.127Z,37.86
2023-05-09T09:39:45.283Z,37.82
2023-05-09T09:40:45.041Z,37.79
2023-05-09T09:41:45.207Z,37.65
2023-05-09T09:42:45.050Z,37.59
2023-05-09T09:43:45.050Z,37.55
2023-05-09T09:44:45.237Z,37.53
2023-05-09T09:45:45.160Z,37.49
2023-05-09T09:46:45.032Z,37.50
2023-05-09T09:47:45.291Z,37.50
2023-05-09T09:48:45.021Z,37.43
2023-05-09T09:49:45.959Z,37.40
2023-05-09T09:50:45.035Z,37.39
2023-05-09T09:51:44.986Z,37.29
2023-05-09T09:52:45.291Z,37.31
2023-05-09T09:53:45.014Z,37.26
2023-05-09T09:54:44.957Z,37.17
2023-05-09T09:55:45.931Z,37.18
2023-05-09T09:56:44.991Z,37.14
2023-05-09T09:57:44.997Z,37.14
2023-05-09T09:58:45.026Z,37.05
2023-05-09T09:59:44.975Z,37.05
2023-05-09T10:00:44.995Z,37.05
2023-05-09T10:01:44.913Z,36.99
2023-05-09T10:02:44.917Z,36.98
2023-05-09T10:03:44.974Z,37.02
2023-05-09T10:04:44.917Z,36.98
2023-05-09T10:05:44.901Z,36.92
2023-05-09T10:06:44.900Z,36.95
2023-05-09T10:07:44.936Z,36.92
2023-05-09T10:08:44.922Z,36.89
2023-05-09T10:09:44.929Z,36.83
2023-05-09T10:10:44.864Z,36.85
2023-05-09T10:11:44.837Z,36.85
2023-05-09T10:12:44.884Z,36.80
2023-05-09T10:13:44.914Z,36.76
2023-05-09T10:14:44.870Z,36.71
2023-05-09T10:15:53.132Z,36.68
2023-05-09T10:16:45.921Z,36.68
2023-05-09T10:17:44.865Z,36.68
2023-05-09T10:18:45.158Z,36.67
2023-05-09T10:19:44.785Z,36.64
2023-05-09T10:20:44.795Z,36.59
2023-05-09T10:21:44.799Z,36.56
2023-05-09T10:22:44.797Z,36.51
2023-05-09T10:23:44.803Z,36.51
2023-05-09T10:24:44.854Z,36.48
2023-05-09T10:25:44.819Z,36.48
2023-05-09T10:26:44.843Z,36.45
2023-05-09T10:27:44.897Z,36.42
2023-05-09T10:28:44.965Z,36.43
2023-05-09T10:29:45.066Z,36.41
2023-05-09T10:30:45.056Z,36.43
2023-05-09T10:31:45.210Z,36.39
2023-05-09T10:32:45.212Z,36.37
2023-05-09T10:33:45.214Z,36.36
2023-05-09T10:34:45.289Z,36.36
2023-05-09T10:35:45.304Z,36.36
2023-05-09T10:36:45.359Z,36.34
2023-05-09T10:37:45.438Z,36.35
2023-05-09T10:38:45.517Z,36.33
2023-05-09T10:39:45.549Z,36.31
2023-05-09T10:40:45.760Z,36.27
2023-05-09T10:41:45.669Z,36.27
2023-05-09T10:42:45.765Z,36.28
2023-05-09T10:43:45.947Z,36.23
2023-05-09T10:44:45.909Z,36.24
2023-05-09T10:45:46.194Z,36.19
2023-05-09T10:46:46.055Z,36.20
2023-05-09T10:47:46.150Z,36.20
2023-05-09T10:48:46.086Z,36.14
2023-05-09T10:49:46.119Z,36.12
2023-05-09T10:50:46.190Z,36.14
2023-05-09T10:51:46.327Z,36.10
2023-05-09T10:52:46.312Z,36.09
2023-05-09T10:53:46.356Z,36.06
2023-05-09T10:54:46.456Z,36.06
2023-05-09T10:55:46.486Z,36.07
2023-05-09T10:56:46.642Z,36.04
2023-05-09T10:57:46.584Z,36.00
2023-05-09T10:58:46.682Z,36.01
2023-05-09T10:59:46.707Z,36.01
2023-05-09T11:00:46.796Z,35.97
2023-05-09T11:01:46.946Z,35.95
2023-05-09T11:02:47.023Z,35.95
2023-05-09T11:03:47.197Z,35.95
2023-05-09T11:04:47.021Z,35.92
2023-05-09T11:05:47.052Z,35.90
2023-05-09T11:06:47.185Z,35.86
2023-05-09T11:07:47.184Z,35.88
2023-05-09T11:08:47.280Z,35.84
2023-05-09T11:09:47.285Z,35.83
2023-05-09T11:10:47.389Z,35.83
2023-05-09T11:11:47.402Z,35.83
2023-05-09T11:12:47.754Z,35.84
2023-05-09T11:13:47.512Z,35.82
2023-05-09T11:14:47.653Z,35.80
2023-05-09T11:15:47.650Z,35.77
2023-05-09T11:16:47.768Z,35.77
2023-05-09T11:17:48.281Z,35.74
2023-05-09T11:18:47.845Z,35.76
2023-05-09T11:19:47.973Z,35.66
2023-05-09T11:20:48.789Z,35.69
2023-05-09T11:21:48.274Z,35.69
2023-05-09T11:22:48.294Z,35.69
2023-05-09T11:23:48.348Z,35.68
2023-05-09T11:24:48.188Z,35.67
2023-05-09T11:25:48.201Z,35.65
2023-05-09T11:26:48.242Z,35.64
2023-05-09T11:27:48.304Z,35.64
2023-05-09T11:28:49.302Z,35.61
2023-05-09T11:29:48.461Z,35.60
2023-05-09T11:30:48.459Z,35.60
2023-05-09T11:31:48.615Z,35.59
2023-05-09T11:32:48.702Z,35.59
2023-05-09T11:33:48.766Z,35.58
2023-05-09T11:34:48.691Z,35.60
2023-05-09T11:35:48.780Z,35.56
2023-05-09T11:36:48.783Z,35.54
2023-05-09T11:37:48.954Z,35.55
2023-05-09T11:38:48.946Z,35.50
2023-05-09T11:39:48.944Z,35.51
2023-05-09T11:40:49.022Z,35.51
2023-05-09T11:41:49.059Z,35.50
2023-05-09T11:42:49.148Z,35.47
2023-05-09T11:43:49.355Z,35.41
2023-05-09T11:44:49.371Z,35.46
2023-05-09T11:45:49.314Z,35.41
2023-05-09T11:46:49.319Z,35.40
2023-05-09T11:47:49.423Z,35.39
2023-05-09T11:48:49.438Z,35.37
2023-05-09T11:49:49.491Z,35.37
2023-05-09T11:50:49.519Z,35.32
2023-05-09T11:51:49.525Z,35.30
2023-05-09T11:52:49.597Z,35.26
2023-05-09T11:53:49.606Z,35.30
2023-05-09T11:54:49.730Z,35.27
2023-05-09T11:55:49.786Z,35.25
2023-05-09T11:56:51.786Z,35.26
2023-05-09T11:57:49.769Z,35.23
2023-05-09T11:58:49.855Z,35.14
2023-05-09T11:59:49.894Z,35.13
2023-05-09T12:00:50.138Z,35.15
2023-05-09T12:01:49.978Z,35.12
2023-05-09T12:02:50.169Z,35.09
2023-05-09T12:03:50.069Z,35.03
2023-05-09T12:04:50.092Z,35.03
2023-05-09T12:05:50.141Z,35.04
2023-05-09T12:06:50.210Z,35.03
2023-05-09T12:07:50.310Z,35.01
2023-05-09T12:08:50.273Z,34.96
2023-05-09T12:09:50.388Z,34.99
2023-05-09T12:10:50.345Z,34.96
2023-05-09T12:11:50.420Z,34.94
2023-05-09T12:12:50.523Z,34.93
2023-05-09T12:13:50.501Z,34.91
2023-05-09T12:14:50.525Z,34.88
2023-05-09T12:15:50.609Z,34.91
2023-05-09T12:16:50.666Z,34.89
2023-05-09T12:17:52.123Z,34.85
2023-05-09T12:18:50.705Z,34.86
2023-05-09T12:19:50.708Z,34.86
2023-05-09T12:20:50.750Z,34.81
2023-05-09T12:21:50.831Z,34.83
2023-05-09T12:22:50.854Z,34.81
2023-05-09T12:23:52.500Z,34.80
2023-05-09T12:24:50.987Z,34.79
2023-05-09T12:25:51.043Z,34.78
2023-05-09T12:26:51.062Z,34.72
2023-05-09T12:27:51.118Z,34.75
2023-05-09T12:28:51.186Z,34.77
2023-05-09T12:29:53.020Z,34.72
2023-05-09T12:30:51.196Z,34.69
2023-05-09T12:31:51.227Z,34.70
2023-05-09T12:32:51.342Z,34.66
2023-05-09T12:33:51.216Z,34.63
2023-05-09T12:34:51.226Z,34.64
2023-05-09T12:35:52.869Z,34.63
2023-05-09T12:36:51.183Z,34.59
2023-05-09T12:37:51.179Z,34.59
2023-05-09T12:38:51.150Z,34.59
2023-05-09T12:39:51.148Z,34.52
2023-05-09T12:40:51.162Z,34.58
2023-05-09T12:42:51.180Z,34.52
2023-05-09T12:43:51.113Z,34.55
2023-05-09T12:44:51.134Z,34.53
2023-05-09T12:45:51.144Z,34.44
2023-05-09T12:46:51.124Z,34.45
2023-05-09T12:47:51.153Z,34.38
2023-05-09T12:48:51.181Z,34.38
2023-05-09T12:49:51.133Z,34.41
2023-05-09T12:50:51.145Z,34.43
2023-05-09T12:51:51.079Z,34.45
2023-05-09T12:53:02.561Z,34.45
2023-05-09T12:53:52.072Z,34.41